createdAt,value
2022-12-20T00:00:58.234Z,8.60
2022-12-20T00:04:05.701Z,8.80
2022-12-20T00:07:07.208Z,8.07
2022-12-20T00:10:08.721Z,8.95
2022-12-20T00:13:10.541Z,8.63
2022-12-20T00:16:13.443Z,7.30
2022-12-20T00:19:14.752Z,8.40
2022-12-20T00:22:15.999Z,7.82
2022-12-20T00:25:17.245Z,6.95
2022-12-20T00:28:18.503Z,8.00
2022-12-20T00:31:20.572Z,8.05
2022-12-20T00:34:22.116Z,8.95
2022-12-20T00:37:23.418Z,7.72
2022-12-20T00:40:24.713Z,7.63
2022-12-20T00:43:25.993Z,7.50
2022-12-20T00:46:27.834Z,7.00
2022-12-20T00:49:29.160Z,6.65
2022-12-20T00:52:30.448Z,7.65
2022-12-20T00:55:31.726Z,6.47
2022-12-20T00:58:33.624Z,5.88
2022-12-20T01:01:35.263Z,6.15
2022-12-20T01:04:36.600Z,6.35
2022-12-20T01:07:37.883Z,6.80
2022-12-20T01:10:39.127Z,7.85
2022-12-20T01:13:41.953Z,7.07
2022-12-20T01:16:44.990Z,6.13
2022-12-20T01:19:46.366Z,8.13
2022-12-20T01:22:47.908Z,7.15
2022-12-20T01:25:51.055Z,6.85
2022-12-20T01:28:53.211Z,7.60
2022-12-20T01:31:54.814Z,7.53
2022-12-20T01:34:56.167Z,7.97
2022-12-20T01:37:57.435Z,7.60
2022-12-20T01:40:58.837Z,6.55
2022-12-20T01:44:01.716Z,7.65
2022-12-20T01:47:03.673Z,8.27
2022-12-20T01:50:07.489Z,7.55
2022-12-20T01:53:09.406Z,8.20
2022-12-20T01:56:10.945Z,8.75
2022-12-20T01:59:12.962Z,7.72
2022-12-20T02:02:14.450Z,9.40
2022-12-20T02:05:17.584Z,7.43
2022-12-20T02:08:19.616Z,6.35
2022-12-20T02:11:37.722Z,7.53
2022-12-20T02:14:51.520Z,7.60
2022-12-20T02:18:15.625Z,6.57
2022-12-20T02:21:32.788Z,6.85
2022-12-20T02:24:51.312Z,5.95
2022-12-20T02:28:12.846Z,6.72
2022-12-20T02:31:17.492Z,6.85
2022-12-20T02:34:21.565Z,7.50
2022-12-20T02:37:22.859Z,7.93
2022-12-20T02:40:27.596Z,6.72
2022-12-20T02:43:48.493Z,5.90
2022-12-20T02:46:50.368Z,6.20
2022-12-20T02:49:53.519Z,6.28
2022-12-20T02:52:55.064Z,6.15
2022-12-20T02:56:02.280Z,6.50
2022-12-20T02:59:13.791Z,7.00
2022-12-20T03:02:15.814Z,6.25
2022-12-20T03:05:18.004Z,8.02
2022-12-20T03:08:20.407Z,7.40
2022-12-20T03:11:21.671Z,6.63
2022-12-20T03:14:23.035Z,7.43
2022-12-20T03:17:24.304Z,6.43
2022-12-20T03:20:25.678Z,6.43
2022-12-20T03:23:27.004Z,7.70
2022-12-20T03:26:28.282Z,8.18
2022-12-20T03:29:29.540Z,6.32
2022-12-20T03:32:30.822Z,7.57
2022-12-20T03:35:32.112Z,7.10
2022-12-20T03:38:33.373Z,6.57
2022-12-20T03:41:34.632Z,7.75
2022-12-20T03:44:36.006Z,6.50
2022-12-20T03:47:37.427Z,7.15
2022-12-20T03:50:38.719Z,6.07
2022-12-20T03:53:39.955Z,5.78
2022-12-20T03:56:41.262Z,6.40
2022-12-20T03:59:43.350Z,5.85
2022-12-20T04:02:44.911Z,6.00
2022-12-20T04:05:46.555Z,6.13
2022-12-20T04:08:47.818Z,6.72
2022-12-20T04:11:49.129Z,5.57
2022-12-20T04:14:50.358Z,8.18
2022-12-20T04:17:51.605Z,6.85
2022-12-20T04:20:53.437Z,6.47
2022-12-20T04:23:54.833Z,5.97
2022-12-20T04:26:56.122Z,5.97
2022-12-20T04:29:57.400Z,6.57
2022-12-20T04:32:58.664Z,7.18
2022-12-20T04:35:59.949Z,6.82
2022-12-20T04:39:01.236Z,5.40
2022-12-20T04:42:02.503Z,6.28
2022-12-20T04:45:04.279Z,5.85
2022-12-20T04:48:36.883Z,6.22
2022-12-20T04:51:27.769Z,7.07
2022-12-20T04:54:29.072Z,5.97
2022-12-20T04:57:30.374Z,6.60
2022-12-20T05:00:32.233Z,7.45
2022-12-20T05:03:33.697Z,6.57
2022-12-20T05:06:35.031Z,7.45
2022-12-20T05:09:36.315Z,7.85
2022-12-20T05:12:37.703Z,6.88
2022-12-20T05:15:39.515Z,7.93
2022-12-20T05:18:48.255Z,8.30
2022-12-20T05:22:08.940Z,7.03
2022-12-20T05:25:29.475Z,7.40
2022-12-20T05:28:31.701Z,6.38
2022-12-20T05:31:33.125Z,7.35
2022-12-20T05:34:34.414Z,8.48
2022-12-20T05:37:35.785Z,7.38
2022-12-20T05:40:37.307Z,6.55
2022-12-20T05:43:38.608Z,7.30
2022-12-20T05:46:39.938Z,7.10
2022-12-20T05:49:41.276Z,7.63
2022-12-20T05:52:42.656Z,7.20
2022-12-20T05:55:53.981Z,7.20
2022-12-20T05:58:55.288Z,6.43
2022-12-20T06:01:56.621Z,7.80
2022-12-20T06:04:59.011Z,7.55
2022-12-20T06:08:00.256Z,7.40
2022-12-20T06:11:04.671Z,7.78
2022-12-20T06:14:05.899Z,7.00
2022-12-20T06:17:07.253Z,6.32
2022-12-20T06:20:08.925Z,6.93
2022-12-20T06:23:10.231Z,6.30
2022-12-20T06:26:11.520Z,6.57
2022-12-20T06:29:14.263Z,7.13
2022-12-20T06:32:15.544Z,7.13
2022-12-20T06:35:16.929Z,6.00
2022-12-20T06:38:18.428Z,4.45
2022-12-20T06:41:19.765Z,5.85
2022-12-20T06:44:21.109Z,3.97
2022-12-20T06:47:22.401Z,3.42
2022-12-20T06:50:23.886Z,4.25
2022-12-20T06:53:25.179Z,3.63
2022-12-20T06:56:26.473Z,3.42
2022-12-20T06:59:27.758Z,4.15
2022-12-20T07:02:29.247Z,3.70
2022-12-20T07:05:30.668Z,3.00
2022-12-20T07:08:31.935Z,3.58
2022-12-20T07:11:33.203Z,4.57
2022-12-20T07:14:34.454Z,4.18
2022-12-20T07:17:35.723Z,4.63
2022-12-20T07:20:38.565Z,3.72
2022-12-20T07:23:39.860Z,4.35
2022-12-20T07:26:41.695Z,5.43
2022-12-20T07:29:43.264Z,4.93
2022-12-20T07:32:45.103Z,4.82
2022-12-20T07:39:08.114Z,6.63
2022-12-20T07:42:09.396Z,6.13
2022-12-20T07:45:10.792Z,4.90
2022-12-20T07:48:16.432Z,4.53
2022-12-20T07:51:23.736Z,3.95
2022-12-20T07:54:31.298Z,6.30
2022-12-20T07:57:36.477Z,6.78
2022-12-20T08:00:38.925Z,7.68
2022-12-20T08:03:44.221Z,6.22
2022-12-20T08:06:46.422Z,5.55
2022-12-20T08:09:47.915Z,5.10
2022-12-20T08:12:49.577Z,5.78
2022-12-20T08:15:50.923Z,5.80
2022-12-20T08:18:52.441Z,4.82
2022-12-20T08:21:54.160Z,5.90
2022-12-20T08:24:55.501Z,4.90
2022-12-20T08:27:56.764Z,4.07
2022-12-20T08:31:02.176Z,4.43
2022-12-20T08:34:03.516Z,4.90
2022-12-20T08:37:10.664Z,5.90
2022-12-20T08:40:15.816Z,4.90
2022-12-20T08:43:17.130Z,4.93
2022-12-20T08:46:18.491Z,4.38
2022-12-20T08:49:19.851Z,4.70
2022-12-20T08:52:21.635Z,4.25
2022-12-20T08:55:27.669Z,3.63
2022-12-20T08:58:30.742Z,4.45
2022-12-20T09:01:33.912Z,5.07
2022-12-20T09:04:35.306Z,5.07
2022-12-20T09:07:36.618Z,4.43
2022-12-20T09:10:37.933Z,4.10
2022-12-20T09:13:44.130Z,4.72
2022-12-20T09:16:45.933Z,4.13
2022-12-20T09:19:47.184Z,3.83
2022-12-20T09:22:48.429Z,4.15
2022-12-20T09:25:53.740Z,3.83
2022-12-20T09:28:55.519Z,3.35
2022-12-20T09:31:56.891Z,3.60
2022-12-20T09:34:58.253Z,3.75
2022-12-20T09:37:59.576Z,3.90
2022-12-20T09:41:04.582Z,3.67
2022-12-20T09:44:27.188Z,3.53
2022-12-20T09:47:28.565Z,3.70
2022-12-20T09:50:44.993Z,6.15
2022-12-20T09:53:52.042Z,7.32
2022-12-20T09:56:59.529Z,6.63
2022-12-20T10:00:00.904Z,5.70
2022-12-20T10:03:10.032Z,5.82
2022-12-20T10:06:17.892Z,4.40
2022-12-20T10:09:39.447Z,3.75
2022-12-20T10:12:40.792Z,4.50
2022-12-20T10:15:49.986Z,4.45
2022-12-20T10:18:51.242Z,4.38
2022-12-20T10:22:06.133Z,3.58
2022-12-20T10:25:16.471Z,2.85
2022-12-20T10:28:19.856Z,4.18
2022-12-20T10:31:21.309Z,5.28
2022-12-20T10:34:23.672Z,3.30
2022-12-20T10:37:25.069Z,4.07
2022-12-20T10:41:01.443Z,4.07
2022-12-20T10:43:56.392Z,3.35
2022-12-20T10:46:59.368Z,4.13
2022-12-20T10:50:15.601Z,3.33
2022-12-20T10:53:21.628Z,3.22
2022-12-20T10:56:24.650Z,4.47
2022-12-20T10:59:25.906Z,2.90
2022-12-20T11:02:40.169Z,2.88
2022-12-20T11:06:03.409Z,2.58
2022-12-20T11:09:22.164Z,2.92
2022-12-20T11:12:23.472Z,2.25
2022-12-20T11:15:34.343Z,2.83
2022-12-20T11:18:56.813Z,2.30
2022-12-20T11:21:58.055Z,1.95
2022-12-20T11:25:11.097Z,3.00
2022-12-20T11:28:23.530Z,3.00
2022-12-20T11:31:37.958Z,4.03
2022-12-20T11:34:42.299Z,3.22
2022-12-20T11:37:52.575Z,5.18
2022-12-20T11:40:55.782Z,5.00
2022-12-20T11:44:23.841Z,5.15
2022-12-20T11:47:37.251Z,3.65
2022-12-20T11:50:41.322Z,3.90
2022-12-20T11:53:55.057Z,4.80
2022-12-20T11:57:00.019Z,4.03
2022-12-20T12:00:02.706Z,5.10
2022-12-20T12:03:10.387Z,4.88
2022-12-20T12:06:20.370Z,4.53
2022-12-20T12:09:24.640Z,4.05
2022-12-20T12:12:45.296Z,4.13
2022-12-20T12:16:06.218Z,3.20
2022-12-20T12:19:11.826Z,3.22
2022-12-20T12:22:16.787Z,2.97
2022-12-20T12:25:18.637Z,3.00
2022-12-20T12:28:20.559Z,3.70
2022-12-20T12:31:28.066Z,4.32
2022-12-20T12:34:29.436Z,3.50
2022-12-20T12:37:33.994Z,3.88
2022-12-20T12:40:52.253Z,4.30
2022-12-20T12:43:55.902Z,3.40
2022-12-20T12:47:00.785Z,3.22
2022-12-20T12:50:02.485Z,3.33
2022-12-20T12:53:06.274Z,2.85
2022-12-20T12:56:43.104Z,3.60
2022-12-20T12:59:48.145Z,3.03
2022-12-20T13:02:50.726Z,2.95
2022-12-20T13:05:52.074Z,2.90
2022-12-20T13:08:56.468Z,3.40
2022-12-20T13:12:03.318Z,3.55
2022-12-20T13:15:22.079Z,3.08
2022-12-20T13:18:24.455Z,3.67
2022-12-20T13:21:31.322Z,3.13
2022-12-20T13:24:49.060Z,3.20
2022-12-20T13:27:50.324Z,3.80
2022-12-20T13:31:00.679Z,5.05
2022-12-20T13:34:02.188Z,5.15
2022-12-20T13:37:03.537Z,4.03
2022-12-20T13:40:05.864Z,3.80
2022-12-20T13:43:19.473Z,3.17
2022-12-20T13:46:22.833Z,3.60
2022-12-20T13:49:26.895Z,3.28
2022-12-20T13:52:31.944Z,4.00
2022-12-20T13:55:40.001Z,4.03
2022-12-20T13:58:42.503Z,4.15
2022-12-20T14:01:47.697Z,4.85
2022-12-20T14:04:53.596Z,4.28
2022-12-20T14:07:59.874Z,4.50
2022-12-20T14:11:27.395Z,3.30
2022-12-20T14:14:28.724Z,3.33
2022-12-20T14:17:33.537Z,3.10
2022-12-20T14:20:36.355Z,3.25
2022-12-20T14:23:41.936Z,3.75
2022-12-20T14:26:45.327Z,3.42
2022-12-20T14:29:46.679Z,3.20
2022-12-20T14:32:49.542Z,3.75
2022-12-20T14:35:51.774Z,3.67
2022-12-20T14:38:53.182Z,3.22
2022-12-20T14:41:58.773Z,4.25
2022-12-20T14:45:04.234Z,4.07
2022-12-20T14:48:07.312Z,3.30
2022-12-20T14:51:08.667Z,3.63
2022-12-20T14:54:39.905Z,3.70
2022-12-20T14:57:45.060Z,3.70
2022-12-20T15:00:55.823Z,3.63
2022-12-20T15:03:58.457Z,3.25
2022-12-20T15:07:00.759Z,3.33
2022-12-20T15:10:03.102Z,3.10
2022-12-20T15:13:04.861Z,3.13
2022-12-20T15:16:14.390Z,3.28
2022-12-20T15:19:15.913Z,3.58
2022-12-20T15:22:18.681Z,3.22
2022-12-20T15:25:20.037Z,3.03
2022-12-20T15:28:23.240Z,2.80
2022-12-20T15:31:32.405Z,2.90
2022-12-20T15:34:35.907Z,2.80
2022-12-20T15:37:37.185Z,3.00
2022-12-20T15:40:39.413Z,2.58
2022-12-20T15:43:40.745Z,2.67
2022-12-20T15:46:42.241Z,2.75
2022-12-20T15:49:49.868Z,2.45
2022-12-20T15:52:51.616Z,2.67
2022-12-20T15:55:53.971Z,2.42
2022-12-20T15:58:55.853Z,3.08
2022-12-20T16:01:57.279Z,3.63
2022-12-20T16:04:59.868Z,3.70
2022-12-20T16:08:01.177Z,3.30
2022-12-20T16:11:02.490Z,4.47
2022-12-20T16:14:04.062Z,3.95
2022-12-20T16:17:05.949Z,3.55
2022-12-20T16:20:07.580Z,3.17
2022-12-20T16:23:19.711Z,3.50
2022-12-20T16:26:22.801Z,4.53
2022-12-20T16:29:24.142Z,2.67
2022-12-20T16:32:25.461Z,3.30
2022-12-20T16:35:28.644Z,3.67
2022-12-20T16:38:29.891Z,3.55
2022-12-20T16:41:32.052Z,4.10
2022-12-20T16:44:33.661Z,3.97
2022-12-20T16:47:35.012Z,3.60
2022-12-20T16:50:41.410Z,3.45
2022-12-20T16:54:09.918Z,3.28
2022-12-20T16:57:04.007Z,3.78
2022-12-20T17:00:06.775Z,3.30
2022-12-20T17:03:08.302Z,3.90
2022-12-20T17:06:09.988Z,3.63
2022-12-20T17:12:30.217Z,4.43
2022-12-20T17:15:31.917Z,4.53
2022-12-20T17:18:33.201Z,5.28
2022-12-20T17:24:54.918Z,3.50
2022-12-20T17:27:56.213Z,3.30
2022-12-20T17:31:04.030Z,4.07
2022-12-20T17:34:19.336Z,3.80
2022-12-20T17:37:21.467Z,3.80
2022-12-20T17:40:24.426Z,3.90
2022-12-20T17:43:25.744Z,3.35
2022-12-20T17:46:27.429Z,3.17
2022-12-20T17:49:28.837Z,3.40
2022-12-20T17:52:30.188Z,3.35
2022-12-20T17:55:32.196Z,2.80
2022-12-20T17:58:33.538Z,3.13
2022-12-20T18:01:35.900Z,3.10
2022-12-20T18:04:37.299Z,3.70
2022-12-20T18:07:38.706Z,3.67
2022-12-20T18:10:39.983Z,3.05
2022-12-20T18:13:45.478Z,3.25
2022-12-20T18:16:47.371Z,3.70
2022-12-20T18:19:48.736Z,3.10
2022-12-20T18:22:50.030Z,3.75
2022-12-20T18:25:51.313Z,3.60
2022-12-20T18:29:02.357Z,4.35
2022-12-20T18:32:03.841Z,3.70
2022-12-20T18:35:06.695Z,3.40
2022-12-20T18:38:07.980Z,3.72
2022-12-20T18:41:12.059Z,3.15
2022-12-20T18:44:13.372Z,3.03
2022-12-20T18:47:14.704Z,3.35
2022-12-20T18:50:16.040Z,4.68
2022-12-20T18:53:20.472Z,3.85
2022-12-20T18:56:24.878Z,3.85
2022-12-20T18:59:26.614Z,3.17
2022-12-20T19:02:28.024Z,3.28
2022-12-20T19:05:32.541Z,3.47
2022-12-20T19:08:34.049Z,3.88
2022-12-20T19:11:35.418Z,3.78
2022-12-20T19:14:36.713Z,4.30
2022-12-20T19:17:38.038Z,4.32
2022-12-20T19:20:39.351Z,4.00
2022-12-20T19:23:41.384Z,5.10
2022-12-20T19:26:44.135Z,4.03
2022-12-20T19:29:45.413Z,3.88
2022-12-20T19:32:46.915Z,3.65
2022-12-20T19:35:56.548Z,3.17
2022-12-20T19:38:59.221Z,3.80
2022-12-20T19:42:23.164Z,3.90
2022-12-20T19:45:22.037Z,3.78
2022-12-20T19:48:23.528Z,3.60
2022-12-20T19:51:25.675Z,3.08
2022-12-20T19:54:27.252Z,3.50
2022-12-20T19:57:28.551Z,3.60
2022-12-20T20:00:29.888Z,3.13
2022-12-20T20:03:32.472Z,3.25
2022-12-20T20:06:33.811Z,2.65
2022-12-20T20:09:35.184Z,3.13
2022-12-20T20:12:38.256Z,3.53
2022-12-20T20:15:39.643Z,3.45
2022-12-20T20:18:41.000Z,3.30
2022-12-20T20:21:42.339Z,3.70
2022-12-20T20:24:44.086Z,3.63
2022-12-20T20:27:45.802Z,3.47
2022-12-20T20:30:47.797Z,3.53
2022-12-20T20:33:49.315Z,3.65
2022-12-20T20:36:50.744Z,4.13
2022-12-20T20:39:52.102Z,3.63
2022-12-20T20:42:53.361Z,4.97
2022-12-20T20:45:54.678Z,3.83
2022-12-20T20:48:56.007Z,4.30
2022-12-20T20:51:57.253Z,4.45
2022-12-20T20:54:58.688Z,3.60
2022-12-20T20:58:00.030Z,4.30
2022-12-20T21:01:02.389Z,3.55
2022-12-20T21:04:04.445Z,4.07
2022-12-20T21:07:05.878Z,5.47
2022-12-20T21:10:07.888Z,4.28
2022-12-20T21:13:09.381Z,4.32
2022-12-20T21:16:12.563Z,4.53
2022-12-20T21:19:14.344Z,4.50
2022-12-20T21:22:15.641Z,4.07
2022-12-20T21:25:17.228Z,4.55
2022-12-20T21:28:21.485Z,3.80
2022-12-20T21:31:22.942Z,5.20
2022-12-20T21:34:24.324Z,4.30
2022-12-20T21:37:25.750Z,4.50
2022-12-20T21:40:27.168Z,5.22
2022-12-20T21:43:28.748Z,3.90
2022-12-20T21:46:31.800Z,4.13
2022-12-20T21:49:33.277Z,4.10
2022-12-20T21:52:35.195Z,4.20
2022-12-20T21:55:36.465Z,4.30
2022-12-20T21:58:39.023Z,3.90
2022-12-20T22:01:40.464Z,3.67
2022-12-20T22:04:41.914Z,4.45
2022-12-20T22:07:45.368Z,4.18
2022-12-20T22:10:46.979Z,3.92
2022-12-20T22:13:48.362Z,4.10
2022-12-20T22:16:49.881Z,4.18
2022-12-20T22:19:51.152Z,3.95
2022-12-20T22:22:53.120Z,4.30
2022-12-20T22:25:54.386Z,3.75
2022-12-20T22:28:57.292Z,3.55
2022-12-20T22:31:58.656Z,4.22
2022-12-20T22:35:00.053Z,3.58
2022-12-20T22:38:01.892Z,2.55
2022-12-20T22:41:10.405Z,5.10
2022-12-20T22:44:11.784Z,3.45
2022-12-20T22:47:13.143Z,4.18
2022-12-20T22:50:14.535Z,3.67
2022-12-20T22:53:15.960Z,3.13
2022-12-20T22:56:18.685Z,3.50
2022-12-20T22:59:20.101Z,3.30
2022-12-20T23:02:21.646Z,3.70
2022-12-20T23:05:23.086Z,5.57
2022-12-20T23:08:25.145Z,4.05
2022-12-20T23:11:45.603Z,3.72
2022-12-20T23:15:25.264Z,3.80
2022-12-20T23:18:26.497Z,3.50
2022-12-20T23:21:46.625Z,3.40
2022-12-20T23:24:47.979Z,3.55
2022-12-20T23:27:49.828Z,3.00
2022-12-20T23:30:51.137Z,3.72
2022-12-20T23:33:52.447Z,4.15
2022-12-20T23:36:53.741Z,3.38
2022-12-20T23:39:55.225Z,3.53
2022-12-20T23:42:56.679Z,3.88
2022-12-20T23:46:04.958Z,3.25
2022-12-20T23:49:06.337Z,3.78
2022-12-20T23:52:07.672Z,3.05
2022-12-20T23:55:09.424Z,4.50
2022-12-20T23:58:10.673Z,4.10
